Time,TemperatureF,DewpointF,PressureIn,WindDirection,WindDirectionDegrees,WindSpeedMPH,WindSpeedGustMPH,Humidity,HourlyPrecipIn,Conditions,Clouds,dailyrainin,SoftwareType,DateUTC
2013-07-09 00:04:00,67.4,66.0,30.20,SSE,159,0.0,-999.0,96,-99.99,,,0.00,weatherlink.com 1.10,2013-07-09 04:04:00,
2013-07-09 00:19:00,67.1,66.0,30.20,SE,142,0.0,-999.0,96,-99.99,,,0.00,weatherlink.com 1.10,2013-07-09 04:19:00,
2013-07-09 00:34:00,66.9,66.0,30.20,WNW,294,0.0,-999.0,96,-99.99,,,0.00,weatherlink.com 1.10,2013-07-09 04:34:00,
2013-07-09 00:49:00,67.1,66.0,30.19,WNW,294,0.0,-999.0,95,-99.99,,,0.00,weatherlink.com 1.10,2013-07-09 04:49:00,
2013-07-09 01:04:00,67.1,66.0,30.19,WNW,294,0.0,-999.0,95,-99.99,,,0.00,weatherlink.com 1.10,2013-07-09 05:04:00,
2013-07-09 01:19:00,67.1,66.0,30.18,WNW,294,0.0,-999.0,95,-99.99,,,0.00,weatherlink.com 1.10,2013-07-09 05:19:00,
2013-07-09 01:34:00,66.9,66.0,30.18,South,174,0.0,-999.0,95,-99.99,,,0.00,weatherlink.com 1.10,2013-07-09 05:34:00,
2013-07-09 01:49:00,66.6,65.0,30.17,South,174,0.0,-999.0,95,-99.99,,,0.00,weatherlink.com 1.10,2013-07-09 05:49:00,
2013-07-09 02:04:00,66.4,65.0,30.17,South,174,0.0,-999.0,95,-99.99,,,0.00,weatherlink.com 1.10,2013-07-09 06:04:00,
2013-07-09 02:19:00,66.4,65.0,30.17,SE,139,0.0,-999.0,96,-99.99,,,0.00,weatherlink.com 1.10,2013-07-09 06:19:00,
2013-07-09 02:34:00,66.6,66.0,30.16,SE,139,0.0,-999.0,96,-99.99,,,0.00,weatherlink.com 1.10,2013-07-09 06:34:00,
2013-07-09 02:49:00,66.4,65.0,30.17,SE,139,0.0,-999.0,96,-99.99,,,0.00,weatherlink.com 1.10,2013-07-09 06:49:00,
2013-07-09 03:04:00,66.4,65.0,30.17,SE,139,0.0,-999.0,96,-99.99,,,0.00,weatherlink.com 1.10,2013-07-09 07:04:00,
2013-07-09 03:19:00,66.3,65.0,30.17,SE,139,0.0,-999.0,96,-99.99,,,0.00,weatherlink.com 1.10,2013-07-09 07:19:00,
2013-07-09 03:34:00,66.1,65.0,30.16,SE,139,0.0,-999.0,96,-99.99,,,0.00,weatherlink.com 1.10,2013-07-09 07:34:00,
2013-07-09 04:04:00,66.0,65.0,30.15,SE,139,0.0,-999.0,96,-99.99,,,0.00,weatherlink.com 1.10,2013-07-09 08:04:00,
2013-07-09 04:19:00,66.0,65.0,30.15,West,281,0.0,-999.0,96,-99.99,,,0.00,weatherlink.com 1.10,2013-07-09 08:19:00,
2013-07-09 04:34:00,66.0,64.0,30.16,West,281,0.0,-999.0,94,-99.99,,,0.00,weatherlink.com 1.10,2013-07-09 08:34:00,
2013-07-09 04:49:00,66.3,63.0,30.16,West,281,0.0,-999.0,90,-99.99,,,0.00,weatherlink.com 1.10,2013-07-09 08:49:00,
2013-07-09 05:04:00,66.8,64.0,30.16,West,281,0.0,-999.0,90,-99.99,,,0.00,weatherlink.com 1.10,2013-07-09 09:04:00,
2013-07-09 05:19:00,66.6,64.0,30.16,West,281,0.0,-999.0,92,-99.99,,,0.00,weatherlink.com 1.10,2013-07-09 09:19:00,
2013-07-09 05:34:00,66.4,64.0,30.16,West,281,0.0,-999.0,92,-99.99,,,0.00,weatherlink.com 1.10,2013-07-09 09:34:00,
2013-07-09 05:49:00,66.6,63.0,30.16,West,275,0.0,-999.0,89,-99.99,,,0.00,weatherlink.com 1.10,2013-07-09 09:49:00,
2013-07-09 06:04:00,66.9,63.0,30.16,West,271,2.0,-999.0,87,-99.99,,,0.00,weatherlink.com 1.10,2013-07-09 10:04:00,
2013-07-09 06:19:00,67.6,63.0,30.16,West,273,2.0,-999.0,84,-99.99,,,0.00,weatherlink.com 1.10,2013-07-09 10:19:00,
2013-07-09 06:34:00,67.8,63.0,30.16,West,275,0.0,-999.0,83,-99.99,,,0.00,weatherlink.com 1.10,2013-07-09 10:34:00,
2013-07-09 06:49:00,67.1,63.0,30.16,West,275,0.0,-999.0,86,-99.99,,,0.00,weatherlink.com 1.10,2013-07-09 10:49:00,
2013-07-09 07:04:00,66.9,62.0,30.16,NNW,334,4.0,-999.0,85,-99.99,,,0.00,weatherlink.com 1.10,2013-07-09 11:04:00,
2013-07-09 07:19:00,66.9,63.0,30.16,NW,317,1.0,-999.0,87,-99.99,,,0.00,weatherlink.com 1.10,2013-07-09 11:19:00,
2013-07-09 07:34:00,66.6,63.0,30.17,NW,325,2.0,-999.0,87,-99.99,,,0.00,weatherlink.com 1.10,2013-07-09 11:34:00,
2013-07-09 07:49:00,66.4,63.0,30.17,NW,306,1.0,-999.0,88,-99.99,,,0.00,weatherlink.com 1.10,2013-07-09 11:49:00,
2013-07-09 08:04:00,66.6,63.0,30.17,NW,311,2.0,-999.0,87,-99.99,,,0.00,weatherlink.com 1.10,2013-07-09 12:04:00,
2013-07-09 08:19:00,66.9,63.0,30.17,NW,323,3.0,-999.0,86,-99.99,,,0.00,weatherlink.com 1.10,2013-07-09 12:19:00,
2013-07-09 08:34:00,67.4,63.0,30.18,North,351,0.0,-999.0,85,-99.99,,,0.00,weatherlink.com 1.10,2013-07-09 12:34:00,
2013-07-09 08:49:00,67.6,63.0,30.18,WNW,298,0.0,-999.0,85,-99.99,,,0.00,weatherlink.com 1.10,2013-07-09 12:49:00,
2013-07-09 09:04:00,67.6,63.0,30.18,NW,318,1.0,-999.0,84,-99.99,,,0.00,weatherlink.com 1.10,2013-07-09 13:04:00,
2013-07-09 09:19:00,67.8,63.0,30.18,NW,326,1.0,-999.0,83,-99.99,,,0.00,weatherlink.com 1.10,2013-07-09 13:19:00,
2013-07-09 09:34:00,68.1,62.0,30.18,WNW,292,3.0,-999.0,80,-99.99,,,0.00,weatherlink.com 1.10,2013-07-09 13:34:00,
2013-07-09 09:50:00,68.9,64.0,30.19,NW,314,3.0,-999.0,83,-99.99,,,0.00,weatherlink.com 1.10,2013-07-09 13:50:00,
2013-07-09 10:05:00,69.1,63.0,30.19,NW,313,0.0,-999.0,81,-99.99,,,0.00,weatherlink.com 1.10,2013-07-09 14:05:00,
2013-07-09 10:20:00,69.4,63.0,30.20,NW,313,0.0,-999.0,80,-99.99,,,0.00,weatherlink.com 1.10,2013-07-09 14:20:00,
2013-07-09 10:35:00,69.9,62.0,30.18,WNW,297,2.0,-999.0,77,-99.99,,,0.00,weatherlink.com 1.10,2013-07-09 14:35:00,
2013-07-09 10:50:00,70.6,62.0,30.19,West,272,0.0,-999.0,75,-99.99,,,0.00,weatherlink.com 1.10,2013-07-09 14:50:00,
2013-07-09 11:05:00,70.6,60.0,30.19,NW,324,1.0,-999.0,68,-99.99,,,0.00,weatherlink.com 1.10,2013-07-09 15:05:00,
2013-07-09 11:20:00,70.9,61.0,30.19,WNW,298,0.0,-999.0,72,-99.99,,,0.00,weatherlink.com 1.10,2013-07-09 15:20:00,
2013-07-09 11:35:00,71.8,61.0,30.19,WNW,298,2.0,-999.0,69,-99.99,,,0.00,weatherlink.com 1.10,2013-07-09 15:35:00,
2013-07-09 11:50:00,72.7,64.0,30.19,WNW,290,0.0,-999.0,74,-99.99,,,0.00,weatherlink.com 1.10,2013-07-09 15:50:00,
2013-07-09 12:05:00,72.8,66.0,30.18,WNW,286,0.0,-999.0,78,-99.99,,,0.00,weatherlink.com 1.10,2013-07-09 16:05:00,
2013-07-09 12:20:00,73.0,68.0,30.18,SSE,149,0.0,-999.0,84,-99.99,,,0.00,weatherlink.com 1.10,2013-07-09 16:20:00,
2013-07-09 12:35:00,73.0,68.0,30.19,SSE,149,0.0,-999.0,83,-99.99,,,0.00,weatherlink.com 1.10,2013-07-09 16:35:00,
2013-07-09 12:50:00,73.3,68.0,30.19,SSE,159,0.0,-999.0,82,-99.99,,,0.00,weatherlink.com 1.10,2013-07-09 16:50:00,
2013-07-09 13:05:00,73.3,68.0,30.19,SE,146,0.0,-999.0,83,-99.99,,,0.00,weatherlink.com 1.10,2013-07-09 17:05:00,
2013-07-09 13:20:00,73.5,67.0,30.18,SSE,152,0.0,-999.0,80,-99.99,,,0.00,weatherlink.com 1.10,2013-07-09 17:20:00,
2013-07-09 13:35:00,74.0,68.0,30.18,NW,311,0.0,-999.0,80,-99.99,,,0.00,weatherlink.com 1.10,2013-07-09 17:35:00,
2013-07-09 13:50:00,74.6,68.0,30.17,WNW,300,0.0,-999.0,79,-99.99,,,0.00,weatherlink.com 1.10,2013-07-09 17:50:00,
2013-07-09 14:05:00,74.9,67.0,30.17,NNW,340,0.0,-999.0,76,-99.99,,,0.00,weatherlink.com 1.10,2013-07-09 18:05:00,
2013-07-09 14:20:00,74.9,66.0,30.16,NNW,335,2.0,-999.0,74,-99.99,,,0.00,weatherlink.com 1.10,2013-07-09 18:20:00,
2013-07-09 14:35:00,75.1,65.0,30.16,SE,136,0.0,-999.0,71,-99.99,,,0.00,weatherlink.com 1.10,2013-07-09 18:35:00,
2013-07-09 14:50:00,75.4,66.0,30.16,SE,136,0.0,-999.0,72,-99.99,,,0.00,weatherlink.com 1.10,2013-07-09 18:50:00,
2013-07-09 15:05:00,75.6,66.0,30.14,SE,136,0.0,-999.0,73,-99.99,,,0.00,weatherlink.com 1.10,2013-07-09 19:05:00,
2013-07-09 15:20:00,76.0,67.0,30.14,SE,136,0.0,-999.0,73,-99.99,,,0.00,weatherlink.com 1.10,2013-07-09 19:20:00,
2013-07-09 15:35:00,75.8,65.0,30.14,SE,141,0.0,-999.0,70,-99.99,,,0.00,weatherlink.com 1.10,2013-07-09 19:35:00,
2013-07-09 15:50:00,76.3,67.0,30.14,NNW,331,0.0,-999.0,74,-99.99,,,0.00,weatherlink.com 1.10,2013-07-09 19:50:00,
2013-07-09 16:05:00,76.3,67.0,30.13,SSE,150,1.0,-999.0,72,-99.99,,,0.00,weatherlink.com 1.10,2013-07-09 20:05:00,
2013-07-09 16:21:00,76.7,67.0,30.12,NW,326,0.0,-999.0,73,-99.99,,,0.00,weatherlink.com 1.10,2013-07-09 20:21:00,
2013-07-09 16:35:00,76.7,67.0,30.11,North,9,0.0,-999.0,72,-99.99,,,0.00,weatherlink.com 1.10,2013-07-09 20:35:00,
2013-07-09 16:50:00,76.7,68.0,30.11,SE,124,0.0,-999.0,74,-99.99,,,0.00,weatherlink.com 1.10,2013-07-09 20:50:00,
2013-07-09 17:05:00,77.0,68.0,30.10,NNW,346,0.0,-999.0,73,-99.99,,,0.00,weatherlink.com 1.10,2013-07-09 21:05:00,
2013-07-09 17:20:00,76.7,67.0,30.10,NNW,347,0.0,-999.0,72,-99.99,,,0.00,weatherlink.com 1.10,2013-07-09 21:20:00,
2013-07-09 17:35:00,76.5,68.0,30.09,NNW,347,0.0,-999.0,75,-99.99,,,0.00,weatherlink.com 1.10,2013-07-09 21:35:00,
2013-07-09 17:50:00,76.5,68.0,30.09,NNW,347,0.0,-999.0,74,-99.99,,,0.00,weatherlink.com 1.10,2013-07-09 21:50:00,
2013-07-09 18:05:00,76.0,68.0,30.11,NNW,348,0.0,-999.0,75,-99.99,,,0.00,weatherlink.com 1.10,2013-07-09 22:05:00,
2013-07-09 18:20:00,76.0,68.0,30.11,NNW,348,0.0,-999.0,75,-99.99,,,0.00,weatherlink.com 1.10,2013-07-09 22:20:00,
2013-07-09 18:35:00,75.6,67.0,30.11,NNW,348,0.0,-999.0,75,-99.99,,,0.00,weatherlink.com 1.10,2013-07-09 22:35:00,
2013-07-09 18:50:00,74.7,67.0,30.12,NNW,348,0.0,-999.0,76,-99.99,,,0.00,weatherlink.com 1.10,2013-07-09 22:50:00,
2013-07-09 19:05:00,74.9,67.0,30.12,NNW,348,0.0,-999.0,77,-99.99,,,0.00,weatherlink.com 1.10,2013-07-09 23:05:00,
2013-07-09 19:20:00,74.7,67.0,30.12,NNW,348,0.0,-999.0,77,-99.99,,,0.00,weatherlink.com 1.10,2013-07-09 23:20:00,
2013-07-09 19:35:00,74.0,66.0,30.13,NNW,348,0.0,-999.0,77,-99.99,,,0.00,weatherlink.com 1.10,2013-07-09 23:35:00,
2013-07-09 19:50:00,73.0,65.0,30.13,NNW,348,0.0,-999.0,77,-99.99,,,0.00,weatherlink.com 1.10,2013-07-09 23:50:00,
2013-07-09 20:05:00,72.3,65.0,30.13,NNW,348,0.0,-999.0,79,-99.99,,,0.00,weatherlink.com 1.10,2013-07-10 00:05:00,
2013-07-09 20:20:00,71.8,66.0,30.13,NNW,348,0.0,-999.0,82,-99.99,,,0.00,weatherlink.com 1.10,2013-07-10 00:20:00,
2013-07-09 20:35:00,71.1,66.0,30.14,NNW,348,0.0,-999.0,85,-99.99,,,0.00,weatherlink.com 1.10,2013-07-10 00:35:00,
2013-07-09 20:50:00,70.6,66.0,30.14,NNW,348,0.0,-999.0,86,-99.99,,,0.00,weatherlink.com 1.10,2013-07-10 00:50:00,
2013-07-09 21:05:00,70.1,66.0,30.14,NNW,348,0.0,-999.0,87,-99.99,,,0.00,weatherlink.com 1.10,2013-07-10 01:05:00,
2013-07-09 21:20:00,69.8,66.0,30.14,NNW,348,0.0,-999.0,88,-99.99,,,0.00,weatherlink.com 1.10,2013-07-10 01:20:00,
2013-07-09 21:35:00,69.6,67.0,30.14,NNW,348,0.0,-999.0,90,-99.99,,,0.00,weatherlink.com 1.10,2013-07-10 01:35:00,
2013-07-09 21:50:00,69.3,67.0,30.14,NNW,348,0.0,-999.0,91,-99.99,,,0.00,weatherlink.com 1.10,2013-07-10 01:50:00,
2013-07-09 22:05:00,69.1,66.0,30.15,NNW,348,0.0,-999.0,91,-99.99,,,0.00,weatherlink.com 1.10,2013-07-10 02:05:00,
2013-07-09 22:20:00,68.9,66.0,30.15,SE,136,0.0,-999.0,90,-99.99,,,0.00,weatherlink.com 1.10,2013-07-10 02:20:00,
2013-07-09 22:35:00,68.8,66.0,30.14,SE,136,0.0,-999.0,90,-99.99,,,0.00,weatherlink.com 1.10,2013-07-10 02:35:00,
2013-07-09 22:50:00,68.6,66.0,30.14,SE,136,0.0,-999.0,90,-99.99,,,0.00,weatherlink.com 1.10,2013-07-10 02:50:00,
2013-07-09 23:05:00,68.6,66.0,30.14,SE,136,0.0,-999.0,91,-99.99,,,0.00,weatherlink.com 1.10,2013-07-10 03:05:00,
2013-07-09 23:20:00,68.8,66.0,30.14,SE,136,0.0,-999.0,91,-99.99,,,0.00,weatherlink.com 1.10,2013-07-10 03:20:00,
2013-07-09 23:35:00,68.8,66.0,30.14,SE,136,0.0,-999.0,92,-99.99,,,0.00,weatherlink.com 1.10,2013-07-10 03:35:00,
2013-07-09 23:50:00,68.8,66.0,30.14,SE,136,0.0,-999.0,92,-99.99,,,0.00,weatherlink.com 1.10,2013-07-10 03:50:00,